Fire Weather Observation
Issued by NWS Grand Junction, CO

Home | Current Version | Previous Version | Graphics & Text | Print | Product List | Glossary On
Versions: 1 2 3 4 5 6 7 8 9 10 11 12 13 14 15 16 17 18 19 20 21 22 23 24 25 26 27 28 29 30 31 32 33 34 35 36 37 38 39 40 41 42 43 44 45 46 47 48 49 50
443
SHUS65 KGJT 232015
FWOGJT

DAILY FIRE WEATHER OBSERVATION
NATIONAL WEATHER SERVICE GRAND JUNCTION CO
212 PM MDT SAT SEP 23 2017

STATE OF THE WEATHER (W)               3
DRY BULB TEMPERATURE                   61   DEGREES FAHRENHEIT
RELATIVE HUMIDITY (RH)                 52   PERCENT
LIGHTNING ACTIVITY LEVEL
  (LAL - MIDNIGHT TO 2 PM)             1
WIND DIRECTION                         135  DEGREES (C IF CALM)
WIND SPEED                             20   MPH
MAX TEMP (2 PM - 2 PM)                 78   DEGREES FAHRENHEIT
MIN TEMP (2 PM - 2 PM)                 53   DEGREES FAHRENHEIT
MAX RH (2 PM - 2 PM)                   86   PERCENT
MIN RH (2 PM - 2 PM)                   18   PERCENT
PCPN DURATION                          7.0 HOURS
PCPN AMT (2 PM - 2 PM)                 T    INCHES
LAL (2 PM - 2 PM)                      2

$$

METAR KGJT 231953Z 14017G23KT 10SM CLR 16/06 A2983 RMK AO2 PK
      WND 15027/1918 SLP054 T01610061



USA.gov is the U.S. government's official web portal to all federal, state and local government web resources and services.